Time;durP1;ratioP1;P1;durP2;ratioP2;P2;SDS_P1;SDS_P2;PMS_P1;PMS_P2;Temp;Humidity;BMP_temperature;BMP_pressure;BME280_temperature;BME280_humidity;BME280_pressure;Samples;Min_cycle;Max_cycle;Signal;HPM_P1;HPM_P2
2022/08/24 00:02:14;;;;;;;5.40;3.78;;;;;;;22.87;49.61;101859.81;5992494;29;20271;-68
2022/08/24 00:05:34;;;;;;;3.95;3.25;;;;;;;22.55;49.77;101850.06;5999202;29;20353;-68
2022/08/24 00:08:58;;;;;;;3.78;2.80;;;;;;;22.74;49.68;101849.50;5996224;29;20231;-68
2022/08/24 00:12:19;;;;;;;4.07;3.00;;;;;;;22.70;49.79;101856.44;5998872;29;20234;-68
2022/08/24 00:15:40;;;;;;;2.58;1.92;;;;;;;22.80;49.72;101853.41;5998772;29;20710;-66
2022/08/24 00:19:01;;;;;;;3.90;2.70;;;;;;;22.76;50.02;101852.09;5983424;29;20269;-68
2022/08/24 00:22:22;;;;;;;4.03;1.70;;;;;;;22.79;49.72;101862.69;5989557;29;20270;-68
2022/08/24 00:25:45;;;;;;;4.25;3.80;;;;;;;22.65;50.13;101855.31;5995880;29;20241;-68
2022/08/24 00:29:07;;;;;;;2.42;2.20;;;;;;;22.64;50.48;101856.34;6007082;29;20254;-68
2022/08/24 00:32:28;;;;;;;3.78;2.40;;;;;;;22.67;50.18;101855.97;5979382;29;20883;-68
2022/08/24 00:35:50;;;;;;;2.90;1.88;;;;;;;22.53;51.17;101857.63;6004168;29;20259;-68
2022/08/24 00:39:12;;;;;;;4.65;2.70;;;;;;;22.42;50.89;101849.88;6000882;29;20513;-68
2022/08/24 00:42:35;;;;;;;3.70;2.83;;;;;;;22.52;50.65;101849.59;5993833;29;20628;-67
2022/08/24 00:46:10;;;;;;;3.08;2.00;;;;;;;22.62;50.74;101853.78;5980498;29;20239;-67
2022/08/24 00:49:37;;;;;;;4.35;2.33;;;;;;;22.55;50.83;101847.31;6006657;29;20238;-68
2022/08/24 00:53:02;;;;;;;2.13;1.88;;;;;;;22.38;51.36;101855.94;6000051;29;20806;-68
2022/08/24 00:56:27;;;;;;;1.70;1.58;;;;;;;22.16;52.07;101844.84;5975429;29;20262;-68
2022/08/24 00:59:54;;;;;;;4.18;2.38;;;;;;;22.08;52.83;101861.41;5997163;29;20511;-67
2022/08/24 01:03:16;;;;;;;4.53;1.63;;;;;;;22.09;52.96;101860.34;6010109;29;20235;-67
2022/08/24 01:06:37;;;;;;;2.38;2.17;;;;;;;22.13;53.03;101863.59;5969378;29;20325;-68
2022/08/24 01:10:01;;;;;;;2.63;2.15;;;;;;;22.25;52.33;101853.84;5993749;29;20609;-69
2022/08/24 01:13:24;;;;;;;9.90;2.88;;;;;;;22.15;52.80;101856.03;5968555;29;20259;-69
2022/08/24 01:20:25;;;;;;;3.70;2.13;;;;;;;22.02;53.46;101859.41;6023409;29;20238;-68
2022/08/24 01:23:50;;;;;;;4.28;1.88;;;;;;;21.80;53.61;101863.00;6017252;29;20351;-69
2022/08/24 01:27:13;;;;;;;2.97;2.20;;;;;;;21.90;53.97;101871.91;5994568;29;20243;-69
2022/08/24 01:30:35;;;;;;;5.60;2.35;;;;;;;21.89;53.85;101866.56;6026350;29;20231;-69
2022/08/24 01:33:56;;;;;;;2.30;2.10;;;;;;;21.81;53.98;101872.09;6015248;29;20230;-68
2022/08/24 01:37:17;;;;;;;2.45;1.90;;;;;;;21.63;54.41;101869.69;6016061;29;20238;-69
2022/08/24 01:40:46;;;;;;;2.67;1.73;;;;;;;21.68;54.90;101869.13;6005224;29;20243;-68
2022/08/24 01:44:08;;;;;;;3.15;2.10;;;;;;;21.67;55.29;101873.78;6013627;29;20229;-68
2022/08/24 01:47:29;;;;;;;2.28;2.08;;;;;;;21.49;56.00;101863.09;6013031;29;20806;-68
2022/08/24 01:50:52;;;;;;;4.75;2.58;;;;;;;21.55;55.05;101864.25;5966184;29;20242;-68
2022/08/24 01:54:16;;;;;;;2.25;1.90;;;;;;;21.52;55.66;101872.00;6025361;29;20238;-68
2022/08/24 01:57:38;;;;;;;2.33;2.13;;;;;;;21.53;55.88;101868.22;6015087;29;20238;-68
2022/08/24 02:01:01;;;;;;;5.47;2.10;;;;;;;21.62;55.48;101859.75;6020316;29;20377;-68
2022/08/24 02:04:22;;;;;;;3.05;2.28;;;;;;;21.49;55.73;101867.72;6011741;29;20230;-69
2022/08/24 02:07:44;;;;;;;3.53;2.20;;;;;;;21.55;55.93;101871.66;6000524;29;20242;-68
2022/08/24 02:11:07;;;;;;;4.15;2.20;;;;;;;21.55;56.32;101877.97;6010556;29;20239;-69
2022/08/24 02:14:30;;;;;;;3.20;2.08;;;;;;;21.61;56.09;101885.47;6017731;29;20231;-68
2022/08/24 02:17:52;;;;;;;3.35;2.63;;;;;;;21.52;56.12;101872.88;6015379;29;20234;-68
2022/08/24 02:21:14;;;;;;;3.83;2.47;;;;;;;21.48;56.70;101888.84;5984582;29;20246;-68
2022/08/24 02:24:35;;;;;;;2.17;1.98;;;;;;;21.43;57.03;101871.19;6017013;29;20255;-68
2022/08/24 02:27:58;;;;;;;2.92;2.03;;;;;;;21.48;56.71;101880.63;6010754;29;20230;-67
2022/08/24 02:31:20;;;;;;;3.08;1.70;;;;;;;21.50;56.47;101874.94;6008037;29;20876;-67
2022/08/24 02:34:42;;;;;;;4.70;1.77;;;;;;;21.38;57.24;101892.88;5988958;29;20239;-68
2022/08/24 02:38:04;;;;;;;3.67;1.98;;;;;;;21.31;57.37;101891.88;6022549;29;20234;-68
2022/08/24 02:41:27;;;;;;;4.75;2.40;;;;;;;21.21;57.39;101891.25;6018694;29;20242;-67
2022/08/24 02:44:48;;;;;;;3.40;3.10;;;;;;;21.18;57.21;101897.94;6024732;29;20238;-68
2022/08/24 02:48:11;;;;;;;2.72;2.50;;;;;;;21.20;57.78;101890.38;5995233;29;20241;-68
2022/08/24 02:51:33;;;;;;;3.40;2.40;;;;;;;21.19;57.54;101890.56;6017815;29;20624;-68
2022/08/24 02:54:54;;;;;;;3.60;2.38;;;;;;;20.99;58.15;101890.13;6022643;29;20238;-70
2022/08/24 02:58:18;;;;;;;5.40;3.35;;;;;;;20.94;58.65;101895.31;6033691;29;20238;-68
2022/08/24 03:01:41;;;;;;;4.40;2.50;;;;;;;20.86;58.85;101881.63;5997541;29;20242;-68
2022/08/24 03:05:05;;;;;;;3.78;3.03;;;;;;;20.96;59.05;101884.16;6021005;29;20617;-67
2022/08/24 03:08:26;;;;;;;2.78;2.40;;;;;;;21.04;59.06;101895.13;6012645;29;20235;-68
2022/08/24 03:11:47;;;;;;;4.43;2.85;;;;;;;20.99;58.84;101892.00;5993226;29;21017;-67
2022/08/24 03:15:12;;;;;;;5.43;4.93;;;;;;;20.90;59.07;101898.59;6013323;29;20247;-68
2022/08/24 03:18:33;;;;;;;5.65;4.10;;;;;;;20.94;59.55;101899.94;5989985;29;20587;-68
2022/08/24 03:21:57;;;;;;;4.75;3.40;;;;;;;21.06;58.87;101893.03;6027287;29;20247;-68
2022/08/24 03:25:23;;;;;;;4.18;3.50;;;;;;;21.00;58.67;101893.72;6013460;29;20610;-68
2022/08/24 03:28:45;;;;;;;3.72;3.40;;;;;;;20.89;59.62;101886.75;6018618;29;20235;-68
2022/08/24 03:32:07;;;;;;;3.47;3.15;;;;;;;20.87;59.84;101896.19;6017769;29;20326;-68
2022/08/24 03:35:28;;;;;;;3.45;2.88;;;;;;;20.99;59.93;101892.88;5991207;29;20340;-68
2022/08/24 03:38:50;;;;;;;3.08;2.47;;;;;;;20.96;59.79;101897.88;6019686;29;20226;-67
2022/08/24 03:42:13;;;;;;;4.10;3.28;;;;;;;20.94;59.54;101895.31;6012094;29;20246;-68
2022/08/24 03:45:35;;;;;;;3.65;2.72;;;;;;;20.87;59.97;101899.78;6017115;29;20230;-67
2022/08/24 03:48:57;;;;;;;6.00;4.38;;;;;;;20.64;60.39;101896.09;6017777;29;20566;-68
2022/08/24 03:52:19;;;;;;;5.57;3.90;;;;;;;20.63;60.96;101899.91;6004535;29;20234;-68
2022/08/24 03:55:41;;;;;;;4.53;3.92;;;;;;;20.64;60.84;101894.22;6015942;29;20487;-67
2022/08/24 03:59:02;;;;;;;15.15;12.48;;;;;;;20.64;60.60;101896.97;6015263;29;20248;-68
2022/08/24 04:02:28;;;;;;;10.25;9.23;;;;;;;20.65;60.78;101897.84;6013170;29;20239;-68
2022/08/24 04:05:49;;;;;;;11.77;10.45;;;;;;;20.58;61.59;101899.56;5995292;29;20265;-67
2022/08/24 04:09:10;;;;;;;8.35;6.97;;;;;;;20.52;61.33;101903.88;6007525;29;20246;-67
2022/08/24 04:12:35;;;;;;;11.93;7.22;;;;;;;20.43;61.64;101901.31;6024357;29;20361;-68
2022/08/24 04:15:56;;;;;;;5.57;4.03;;;;;;;20.23;62.21;101909.06;6025388;29;20254;-68
2022/08/24 04:19:18;;;;;;;5.90;4.38;;;;;;;20.27;62.30;101913.16;6009903;29;20633;-68
2022/08/24 04:22:39;;;;;;;7.65;4.70;;;;;;;20.39;62.13;101911.78;6016875;29;20250;-68
2022/08/24 04:26:03;;;;;;;8.73;5.28;;;;;;;20.39;61.98;101916.38;5992371;29;20376;-68
2022/08/24 04:29:26;;;;;;;7.28;5.50;;;;;;;20.39;62.30;101916.38;6029009;29;20246;-68
2022/08/24 04:32:48;;;;;;;6.75;4.88;;;;;;;20.38;62.23;101921.00;5997613;29;20329;-68
2022/08/24 04:36:11;;;;;;;4.10;3.70;;;;;;;20.34;62.29;101914.16;6017165;29;20249;-68
2022/08/24 04:39:35;;;;;;;6.63;3.80;;;;;;;20.26;62.99;101913.31;6015575;29;20239;-68
2022/08/24 04:43:05;;;;;;;3.45;2.60;;;;;;;20.42;62.58;101907.84;5993095;29;20664;-68
2022/08/24 04:46:29;;;;;;;3.90;2.38;;;;;;;20.64;62.21;101902.44;6027102;29;20254;-68
2022/08/24 04:49:51;;;;;;;3.25;2.80;;;;;;;20.74;61.82;101904.97;6015932;29;20234;-68
2022/08/24 04:53:13;;;;;;;4.15;2.85;;;;;;;20.75;61.75;101901.22;6019865;29;20647;-69
2022/08/24 04:56:36;;;;;;;5.22;3.40;;;;;;;20.64;62.05;101905.19;6010560;29;20238;-68
2022/08/24 04:59:58;;;;;;;6.18;3.20;;;;;;;20.45;62.69;101912.94;5995220;29;20278;-68
2022/08/24 05:03:21;;;;;;;7.30;3.70;;;;;;;20.72;62.31;101920.75;6008369;29;20335;-69
2022/08/24 05:06:42;;;;;;;7.30;5.40;;;;;;;20.82;61.88;101915.06;5989272;29;20701;-68
2022/08/24 05:10:05;;;;;;;8.85;8.07;;;;;;;20.89;61.71;101927.03;6007228;29;20246;-69
2022/08/24 05:13:26;;;;;;;7.07;6.35;;;;;;;20.98;61.26;101935.06;5980817;29;20238;-69
2022/08/24 05:16:47;;;;;;;3.83;3.53;;;;;;;20.60;62.72;101933.97;6008768;29;20242;-69
2022/08/24 05:20:11;;;;;;;7.60;7.00;;;;;;;20.69;63.09;101938.38;5990974;29;20271;-69
2022/08/24 05:23:32;;;;;;;9.63;8.77;;;;;;;20.65;63.04;101934.28;6011136;29;20227;-70
2022/08/24 05:26:54;;;;;;;5.60;4.57;;;;;;;20.83;62.45;101939.56;5987039;29;20262;-68
2022/08/24 05:30:15;;;;;;;5.35;3.65;;;;;;;21.01;62.19;101939.28;6012253;29;20269;-70
2022/08/24 05:33:36;;;;;;;3.95;3.53;;;;;;;20.94;62.41;101943.81;5989690;29;20663;-69
2022/08/24 05:36:58;;;;;;;3.63;2.95;;;;;;;20.95;62.74;101960.06;6012419;29;20259;-69
2022/08/24 05:40:30;;;;;;;2.88;2.63;;;;;;;20.88;62.95;101959.06;5987623;29;20813;-69
2022/08/24 05:43:51;;;;;;;5.75;2.97;;;;;;;21.00;63.13;101963.16;6014585;29;22384;-69
2022/08/24 05:47:12;;;;;;;3.28;2.83;;;;;;;21.29;62.04;101957.03;6012334;29;20277;-69
2022/08/24 05:50:33;;;;;;;5.25;3.17;;;;;;;21.53;62.04;101962.38;5984050;29;20227;-69
2022/08/24 05:53:56;;;;;;;4.18;3.67;;;;;;;21.67;61.24;101966.25;5993795;29;20302;-69
2022/08/24 05:57:20;;;;;;;5.18;3.03;;;;;;;21.60;61.48;101957.88;6023810;29;20238;-70
2022/08/24 06:00:53;;;;;;;4.43;3.00;;;;;;;21.46;62.18;101969.66;5987725;29;20226;-69
2022/08/24 06:04:15;;;;;;;4.43;2.95;;;;;;;21.52;62.43;101968.91;6021833;29;20785;-69
2022/08/24 06:07:36;;;;;;;5.28;3.55;;;;;;;21.49;62.94;101972.00;6022599;29;20620;-69
2022/08/24 06:10:59;;;;;;;4.55;2.83;;;;;;;21.97;61.37;101962.63;5996342;29;20235;-69
2022/08/24 06:14:21;;;;;;;10.63;3.92;;;;;;;21.78;62.19;101968.59;6018611;29;20545;-69
2022/08/24 06:17:51;;;;;;;4.30;3.90;;;;;;;22.06;61.80;101967.88;6022473;29;20233;-68
2022/08/24 06:21:15;;;;;;;8.40;3.72;;;;;;;22.17;61.63;101967.41;5990403;29;20708;-69
2022/08/24 06:28:17;;;;;;;8.90;4.15;;;;;;;22.61;59.98;101977.69;5996951;29;20329;-69
2022/08/24 06:31:39;;;;;;;4.55;3.42;;;;;;;22.36;61.34;101981.69;6016231;29;20261;-69
2022/08/24 06:35:01;;;;;;;7.53;4.13;;;;;;;22.40;61.32;101985.78;6022881;29;20249;-69
2022/08/24 06:38:22;;;;;;;7.75;4.03;;;;;;;22.59;61.29;101982.53;6006615;29;20226;-68
2022/08/24 06:41:45;;;;;;;4.07;3.75;;;;;;;22.48;61.59;101985.69;6020070;29;20242;-69
2022/08/24 06:45:14;;;;;;;6.38;3.45;;;;;;;22.07;63.80;101979.72;5995615;29;20233;-69
2022/08/24 06:48:36;;;;;;;7.78;3.85;;;;;;;22.14;63.66;101983.41;6024265;29;20247;-69
2022/08/24 06:51:57;;;;;;;8.02;3.63;;;;;;;21.79;65.28;101986.75;6019823;29;20420;-69
2022/08/24 06:55:18;;;;;;;4.07;2.60;;;;;;;22.37;63.04;101983.38;6000331;29;20230;-69
2022/08/24 06:58:40;;;;;;;3.50;3.20;;;;;;;21.61;66.51;101980.72;6017845;29;20231;-69
2022/08/24 07:02:08;;;;;;;3.70;2.60;;;;;;;21.82;65.48;101990.00;6012074;29;20265;-69
2022/08/24 07:05:29;;;;;;;4.97;3.17;;;;;;;21.60;66.27;101989.97;6029133;29;20237;-70
2022/08/24 07:09:09;;;;;;;3.17;2.67;;;;;;;21.64;66.54;101991.31;6013153;29;20233;-70
2022/08/24 07:12:30;;;;;;;4.10;3.17;;;;;;;22.24;64.29;102006.88;6041168;29;20242;-70
2022/08/24 07:15:53;;;;;;;2.97;2.65;;;;;;;22.30;63.86;102004.44;5997991;29;20241;-69
2022/08/24 07:19:16;;;;;;;7.32;3.47;;;;;;;22.27;64.17;101998.25;6021063;29;20230;-71
2022/08/24 07:22:38;;;;;;;3.22;2.72;;;;;;;22.97;61.65;102001.53;6016923;29;20682;-70
2022/08/24 07:26:05;;;;;;;4.55;2.30;;;;;;;23.51;60.14;101995.72;6000957;29;20234;-71
2022/08/24 07:29:26;;;;;;;6.15;3.70;;;;;;;23.72;59.27;102001.25;6023924;29;20238;-71
2022/08/24 07:32:47;;;;;;;3.10;2.72;;;;;;;22.79;63.21;102008.44;5995784;29;20258;-70
2022/08/24 07:36:10;;;;;;;4.60;3.00;;;;;;;22.79;62.44;102009.28;6021839;29;20234;-70
2022/08/24 07:39:31;;;;;;;3.28;2.55;;;;;;;23.14;61.44;102001.31;5994251;29;20622;-70
2022/08/24 07:42:54;;;;;;;4.00;2.53;;;;;;;23.00;62.20;102011.28;6019801;29;20242;-69
2022/08/24 07:46:15;;;;;;;5.40;2.95;;;;;;;22.88;62.67;102013.66;6004149;29;20326;-70
2022/08/24 07:49:36;;;;;;;5.90;3.03;;;;;;;23.59;60.84;102004.69;6017600;29;20234;-68
2022/08/24 07:53:00;;;;;;;5.97;2.97;;;;;;;23.99;59.85;102005.16;5995292;29;20234;-69
2022/08/24 07:56:21;;;;;;;3.90;3.53;;;;;;;23.83;59.96;102009.88;6030321;29;21818;-69
2022/08/24 07:59:45;;;;;;;7.20;3.40;;;;;;;23.32;60.84;102016.41;5989801;29;20242;-68
2022/08/24 08:03:07;;;;;;;6.28;3.47;;;;;;;23.79;60.17;102011.31;6021603;29;20435;-69
2022/08/24 08:06:30;;;;;;;9.80;3.40;;;;;;;23.94;59.31;102004.88;6003776;29;20239;-69
2022/08/24 08:09:56;;;;;;;4.20;3.00;;;;;;;24.25;58.28;102005.44;5996662;29;20621;-69
2022/08/24 08:13:18;;;;;;;3.67;2.67;;;;;;;24.24;58.54;102012.03;6018880;29;20341;-69
2022/08/24 08:16:41;;;;;;;4.40;3.55;;;;;;;24.03;58.86;102018.31;6015939;29;20254;-68
2022/08/24 08:20:04;;;;;;;3.38;3.05;;;;;;;24.05;59.24;102015.44;6014192;29;20235;-67
2022/08/24 08:27:08;;;;;;;3.45;2.58;;;;;;;24.45;58.09;102003.72;6000030;29;20234;-70
2022/08/24 08:30:33;;;;;;;5.03;3.10;;;;;;;24.70;57.62;102015.19;6018789;29;20513;-69
2022/08/24 08:33:55;;;;;;;3.40;2.25;;;;;;;25.07;56.34;102017.59;6008952;29;20342;-68
2022/08/24 08:37:17;;;;;;;5.75;4.70;;;;;;;25.26;56.03;102019.59;5997475;29;20254;-69
2022/08/24 08:40:54;;;;;;;5.78;2.90;;;;;;;25.32;55.97;102014.09;6014969;29;20231;-69
2022/08/24 08:44:25;;;;;;;5.28;2.83;;;;;;;25.59;54.51;102017.88;6006187;29;20577;-69
2022/08/24 08:48:24;;;;;;;5.47;3.40;;;;;;;25.67;54.24;102014.06;6014183;29;20238;-69
2022/08/24 08:51:59;;;;;;;4.85;3.33;;;;;;;25.52;54.25;102016.13;5988531;29;20523;-69
2022/08/24 08:55:28;;;;;;;6.35;2.95;;;;;;;25.20;53.11;102014.91;6009868;29;20258;-69
2022/08/24 08:59:00;;;;;;;4.13;3.22;;;;;;;24.92;53.33;102014.94;6020242;29;20234;-71
2022/08/24 09:02:50;;;;;;;3.40;2.70;;;;;;;25.48;52.57;102021.22;5989110;29;20511;-73
2022/08/24 09:06:25;;;;;;;2.92;2.67;;;;;;;25.26;52.96;102022.38;6021679;29;20238;-70
2022/08/24 09:10:09;;;;;;;5.13;3.08;;;;;;;25.06;52.74;102016.72;5995327;29;20242;-70
2022/08/24 09:13:47;;;;;;;6.75;3.70;;;;;;;24.66;54.20;102020.22;5989515;29;20287;-71
2022/08/24 09:17:40;;;;;;;5.18;2.75;;;;;;;25.08;52.63;102006.31;6015527;29;20247;-70
2022/08/24 09:21:27;;;;;;;3.83;2.97;;;;;;;25.04;52.86;102006.94;5991646;29;20226;-70
2022/08/24 09:25:19;;;;;;;3.75;2.63;;;;;;;25.39;52.21;102006.69;5993482;29;20249;-70
2022/08/24 09:28:44;;;;;;;5.93;3.30;;;;;;;25.66;51.72;102001.34;6017439;29;20254;-70
2022/08/24 09:32:31;;;;;;;4.07;2.88;;;;;;;26.01;50.83;102003.72;5982981;29;20827;-69
2022/08/24 09:36:07;;;;;;;3.25;2.97;;;;;;;26.09;49.87;102005.50;6013208;29;20241;-69
2022/08/24 09:39:42;;;;;;;3.33;2.58;;;;;;;26.30;49.97;102004.47;5993491;29;20246;-68
2022/08/24 09:43:32;;;;;;;3.13;2.60;;;;;;;25.96;50.61;101995.25;5996455;29;20287;-69
2022/08/24 09:47:20;;;;;;;2.85;2.58;;;;;;;26.23;49.83;102000.81;6020409;29;20222;-69
2022/08/24 09:51:15;;;;;;;3.58;2.70;;;;;;;26.44;48.38;101997.84;5995310;29;20588;-68
2022/08/24 09:55:07;;;;;;;4.18;2.15;;;;;;;26.03;49.01;101996.09;5998683;29;20620;-70
2022/08/24 09:58:58;;;;;;;3.97;3.60;;;;;;;26.70;48.03;101987.63;6020819;29;20515;-69
2022/08/24 10:02:38;;;;;;;3.17;2.38;;;;;;;25.79;48.13;101991.16;5990567;29;20644;-69
2022/08/24 10:06:11;;;;;;;5.00;2.72;;;;;;;25.79;47.97;101990.28;6012023;29;20230;-70
2022/08/24 10:10:09;;;;;;;5.35;2.97;;;;;;;26.37;48.12;101986.78;6023612;29;20238;-70
2022/08/24 10:13:47;;;;;;;5.72;2.97;;;;;;;26.41;46.93;101988.06;5984853;29;20238;-71
2022/08/24 10:17:18;;;;;;;3.65;2.70;;;;;;;26.42;48.42;101984.25;6015159;29;20242;-71
2022/08/24 10:20:57;;;;;;;4.38;2.97;;;;;;;26.91;47.36;101983.81;6011740;29;20227;-71
2022/08/24 10:24:36;;;;;;;5.65;2.53;;;;;;;26.44;46.94;101984.03;6018173;29;20306;-70
2022/08/24 10:28:15;;;;;;;3.03;2.00;;;;;;;27.03;45.81;101971.00;6019801;29;20250;-72
2022/08/24 10:31:46;;;;;;;7.43;4.35;;;;;;;27.02;46.57;101976.72;6018154;29;20238;-71
2022/08/24 10:35:13;;;;;;;2.88;2.60;;;;;;;27.65;44.80;101971.19;6018163;29;20237;-71
2022/08/24 10:46:50;;;;;;;2.72;2.50;;;;;;;27.44;45.02;101967.88;6013915;29;20235;-68
2022/08/24 10:50:32;;;;;;;2.45;2.22;;;;;;;27.94;45.04;101955.84;6015852;29;20230;-69
2022/08/24 10:53:55;;;;;;;3.75;2.75;;;;;;;27.24;45.08;101973.47;6024709;29;20621;-68
2022/08/24 10:57:27;;;;;;;3.92;2.22;;;;;;;27.79;44.63;101963.63;6022992;29;20242;-69
2022/08/24 11:00:48;;;;;;;4.70;2.90;;;;;;;27.62;44.14;101960.53;6021071;29;20337;-70
2022/08/24 11:04:13;;;;;;;4.03;2.40;;;;;;;28.26;41.47;101959.50;6019209;29;21878;-70
2022/08/24 11:07:34;;;;;;;3.05;2.63;;;;;;;28.08;42.56;101953.88;6021291;29;20575;-70
2022/08/24 11:11:07;;;;;;;4.78;2.78;;;;;;;28.58;42.13;101961.13;6017863;29;20618;-67
2022/08/24 11:14:30;;;;;;;2.50;2.22;;;;;;;28.93;42.68;101961.44;6021250;29;20226;-69
2022/08/24 11:17:55;;;;;;;3.08;2.78;;;;;;;29.28;41.31;101962.53;6018465;29;20247;-69
2022/08/24 11:21:35;;;;;;;2.72;2.53;;;;;;;28.67;41.16;101959.78;6017902;29;20762;-68
2022/08/24 11:24:59;;;;;;;5.22;2.40;;;;;;;29.36;40.59;101953.03;6016247;29;20238;-70
2022/08/24 11:28:25;;;;;;;2.67;2.38;;;;;;;29.78;39.30;101952.91;6020961;29;20234;-70
2022/08/24 11:31:51;;;;;;;3.55;2.95;;;;;;;29.55;39.90;101957.47;6019549;29;20230;-69
2022/08/24 11:35:20;;;;;;;4.55;3.30;;;;;;;29.08;40.55;101951.63;6021028;29;20234;-70
2022/08/24 11:38:43;;;;;;;3.95;2.15;;;;;;;29.66;40.21;101949.19;6014623;29;20230;-69
2022/08/24 11:42:15;;;;;;;3.97;2.10;;;;;;;30.85;37.74;101954.56;6024413;29;20235;-70
2022/08/24 11:45:43;;;;;;;4.43;2.78;;;;;;;32.06;36.21;101938.44;6020063;29;20239;-69
2022/08/24 11:49:14;;;;;;;4.78;2.22;;;;;;;33.99;32.04;101948.41;6020935;29;20230;-68
2022/08/24 11:52:44;;;;;;;2.58;1.75;;;;;;;36.36;27.77;101953.31;6020675;29;20231;-68
2022/08/24 11:56:18;;;;;;;5.38;2.75;;;;;;;36.08;28.39;101949.94;6019068;29;20258;-67
2022/08/24 11:59:49;;;;;;;3.10;2.15;;;;;;;39.07;24.10;101950.97;6020333;29;20230;-68
2022/08/24 12:03:27;;;;;;;3.58;1.95;;;;;;;38.72;24.35;101960.66;6006216;29;20254;-68
2022/08/24 12:06:59;;;;;;;7.45;2.38;;;;;;;39.18;24.93;101949.72;6020160;29;20231;-68
2022/08/24 12:10:29;;;;;;;4.28;1.80;;;;;;;41.57;21.40;101949.03;6019961;29;20222;-68
2022/08/24 12:13:58;;;;;;;3.90;2.30;;;;;;;42.82;20.10;101951.56;6008692;29;20568;-67
2022/08/24 12:17:27;;;;;;;2.25;1.75;;;;;;;43.74;18.83;101952.56;6008829;29;20230;-67
2022/08/24 12:20:50;;;;;;;3.22;1.88;;;;;;;43.63;19.12;101949.22;6002677;29;20230;-67
2022/08/24 12:24:15;;;;;;;3.67;1.83;;;;;;;43.18;18.95;101945.75;6010641;29;20238;-68
2022/08/24 12:27:38;;;;;;;3.40;1.90;;;;;;;43.67;18.27;101942.53;6005368;29;20234;-68
2022/08/24 12:31:09;;;;;;;1.65;1.55;;;;;;;41.74;19.52;101938.75;5994961;29;20242;-67
2022/08/24 12:34:36;;;;;;;1.73;1.63;;;;;;;42.75;19.31;101939.00;6003824;29;20328;-67
2022/08/24 12:38:01;;;;;;;1.80;1.67;;;;;;;43.04;18.11;101947.03;6009709;29;20234;-68
2022/08/24 12:41:28;;;;;;;2.13;1.60;;;;;;;40.72;20.51;101943.16;6007558;29;20230;-67
2022/08/24 12:44:53;;;;;;;4.93;1.73;;;;;;;40.86;20.63;101936.38;6004058;29;20567;-67
2022/08/24 12:48:24;;;;;;;5.93;2.17;;;;;;;41.32;19.73;101931.47;6006308;29;20613;-68
2022/08/24 12:52:03;;;;;;;3.25;1.95;;;;;;;42.75;19.53;101939.00;6006214;29;20625;-67
2022/08/24 12:55:57;;;;;;;3.42;1.80;;;;;;;42.00;18.81;101930.44;6010173;29;20253;-68
2022/08/24 12:59:21;;;;;;;2.63;1.95;;;;;;;42.50;19.12;101934.88;6016058;29;20238;-69
2022/08/24 13:02:44;;;;;;;2.28;1.88;;;;;;;43.21;18.57;101939.38;6018505;29;20254;-68
2022/08/24 13:06:11;;;;;;;1.83;1.73;;;;;;;42.04;19.47;101934.31;6019283;29;20329;-68
2022/08/24 13:09:35;;;;;;;2.80;2.35;;;;;;;42.27;18.61;101943.72;6018878;29;20254;-67
2022/08/24 13:13:22;;;;;;;3.25;1.55;;;;;;;38.35;22.53;101938.72;6004508;29;20613;-68
2022/08/24 13:17:08;;;;;;;1.70;1.60;;;;;;;38.52;22.33;101934.63;6014396;29;20242;-70
2022/08/24 13:20:51;;;;;;;3.28;2.00;;;;;;;37.84;22.55;101943.06;6015437;29;20542;-69
2022/08/24 13:24:43;;;;;;;3.25;1.90;;;;;;;39.09;22.31;101931.75;6019515;29;20336;-71
2022/08/24 13:28:09;;;;;;;2.08;1.90;;;;;;;38.64;22.72;101935.06;6016139;29;20250;-70
2022/08/24 13:31:37;;;;;;;3.65;2.25;;;;;;;39.39;22.05;101919.28;6020561;29;20265;-71
2022/08/24 13:34:59;;;;;;;3.35;2.20;;;;;;;40.25;20.84;101913.97;6023533;29;20238;-69
2022/08/24 13:39:02;;;;;;;2.60;2.15;;;;;;;38.62;21.96;101926.91;6014618;29;20509;-70
2022/08/24 13:43:01;;;;;;;3.25;2.13;;;;;;;39.76;22.19;101916.50;6015429;29;20242;-70
2022/08/24 13:46:30;;;;;;;2.10;1.90;;;;;;;40.85;20.47;101916.88;6017059;29;20269;-70
2022/08/24 13:50:02;;;;;;;2.08;1.88;;;;;;;40.58;20.46;101915.66;6016566;29;20234;-70
2022/08/24 13:53:51;;;;;;;3.97;1.90;;;;;;;39.45;22.10;101924.50;6018028;29;20238;-68
2022/08/24 13:57:34;;;;;;;7.30;6.32;;;;;;;40.65;20.99;101918.94;6015557;29;20230;-67
2022/08/24 14:01:02;;;;;;;3.53;2.85;;;;;;;41.03;20.47;101913.94;6017485;29;20325;-68
2022/08/24 14:04:42;;;;;;;3.40;1.98;;;;;;;41.08;20.11;101908.16;6020388;29;20582;-66
2022/08/24 14:08:25;;;;;;;2.92;1.95;;;;;;;40.81;20.28;101904.50;6021662;29;20238;-68
2022/08/24 14:12:11;;;;;;;2.33;1.55;;;;;;;40.14;21.37;101901.16;6019917;29;20546;-68
2022/08/24 14:15:48;;;;;;;12.02;11.18;;;;;;;39.75;20.96;101897.84;6017396;29;20658;-67
2022/08/24 14:19:19;;;;;;;2.15;1.95;;;;;;;38.60;23.09;101895.34;6012280;29;20570;-68
2022/08/24 14:23:01;;;;;;;5.38;1.95;;;;;;;38.31;22.61;101894.50;6018872;29;20238;-68
2022/08/24 14:26:54;;;;;;;2.53;2.20;;;;;;;37.15;24.10;101903.72;6019921;29;20250;-68
2022/08/24 14:30:42;;;;;;;2.60;1.85;;;;;;;36.71;24.35;101897.94;6019403;29;20245;-68
2022/08/24 14:34:17;;;;;;;1.98;1.75;;;;;;;36.98;24.45;101893.94;6019706;29;20227;-68
2022/08/24 14:37:50;;;;;;;2.58;1.85;;;;;;;36.69;24.96;101900.19;6023403;29;20242;-68
2022/08/24 14:41:27;;;;;;;3.47;2.03;;;;;;;34.84;26.02;101897.84;6025905;29;20225;-67
2022/08/24 14:45:08;;;;;;;2.70;1.70;;;;;;;34.52;26.25;101900.75;6015344;29;20246;-67
2022/08/24 14:48:38;;;;;;;1.90;1.80;;;;;;;35.04;26.65;101895.16;6014373;29;20234;-67
2022/08/24 14:52:10;;;;;;;5.68;2.28;;;;;;;34.98;25.84;101896.22;6019288;29;20234;-67
2022/08/24 14:55:42;;;;;;;2.63;1.80;;;;;;;34.64;26.30;101890.16;6011139;29;20233;-67
2022/08/24 14:59:09;;;;;;;4.22;1.90;;;;;;;34.62;26.54;101885.94;6020347;29;20262;-67
2022/08/24 15:03:15;;;;;;;2.00;1.73;;;;;;;34.82;26.05;101877.66;6016796;29;20760;-68
2022/08/24 15:06:45;;;;;;;2.45;1.95;;;;;;;34.84;25.46;101890.25;6013377;29;20849;-68
2022/08/24 15:10:14;;;;;;;2.05;1.85;;;;;;;34.71;25.16;101887.13;6024032;29;20241;-68
2022/08/24 15:13:46;;;;;;;2.20;1.85;;;;;;;34.94;25.35;101887.53;6019732;29;20234;-68
2022/08/24 15:17:11;;;;;;;2.72;2.38;;;;;;;34.77;25.16;101880.41;6020943;29;20231;-68
2022/08/24 15:20:47;;;;;;;2.30;1.80;;;;;;;34.79;25.97;101884.66;6021054;29;20230;-66
2022/08/24 15:24:17;;;;;;;5.82;2.67;;;;;;;34.66;25.26;101885.13;6020088;29;20547;-68
2022/08/24 15:27:48;;;;;;;3.67;2.35;;;;;;;34.73;24.91;101879.28;6015220;29;20263;-67
2022/08/24 15:31:11;;;;;;;2.55;1.67;;;;;;;34.75;25.00;101885.47;6015984;29;20234;-68
2022/08/24 15:34:34;;;;;;;2.65;1.70;;;;;;;34.82;25.59;101878.47;6014660;29;20235;-67
2022/08/24 15:37:56;;;;;;;2.13;1.85;;;;;;;34.83;25.10;101879.34;6019438;29;20242;-68
2022/08/24 15:41:27;;;;;;;1.60;1.50;;;;;;;34.65;25.07;101871.41;6025883;29;20680;-68
2022/08/24 15:44:51;;;;;;;1.98;1.52;;;;;;;34.14;24.44;101870.16;6020862;29;20621;-68
2022/08/24 15:48:14;;;;;;;1.92;1.77;;;;;;;33.82;24.38;101865.41;6016902;29;20246;-68
2022/08/24 15:51:46;;;;;;;2.28;1.50;;;;;;;33.90;24.80;101872.44;6015515;29;20238;-68
2022/08/24 15:55:13;;;;;;;3.35;1.70;;;;;;;34.20;24.93;101880.28;6001483;29;20254;-68
2022/08/24 15:58:37;;;;;;;3.40;1.90;;;;;;;34.21;25.34;101863.25;6014566;29;20680;-68
2022/08/24 16:02:27;;;;;;;2.03;1.83;;;;;;;34.32;25.04;101862.19;6008867;29;20235;-68
2022/08/24 16:05:50;;;;;;;2.17;1.70;;;;;;;34.40;25.06;101867.28;6002467;29;20607;-68
2022/08/24 16:09:33;;;;;;;2.65;2.40;;;;;;;34.22;25.31;101869.66;6010164;29;20234;-67
2022/08/24 16:13:06;;;;;;;3.42;1.98;;;;;;;34.12;26.11;101864.00;6015841;29;20261;-67
2022/08/24 16:16:36;;;;;;;2.33;2.13;;;;;;;34.25;26.23;101869.16;6014748;29;20238;-67
2022/08/24 16:20:01;;;;;;;2.97;2.13;;;;;;;33.99;27.39;101865.25;6021678;29;20340;-68
2022/08/24 16:23:25;;;;;;;2.38;1.88;;;;;;;34.04;27.10;101867.28;6017200;29;20239;-68
2022/08/24 16:26:54;;;;;;;3.33;2.20;;;;;;;33.90;27.54;101872.44;6013016;29;20337;-68